createdAt,value
2022-12-23T00:01:27.989Z,14.32
2022-12-23T00:03:59.361Z,14.27
2022-12-23T00:06:28.080Z,14.25
2022-12-23T00:08:58.451Z,14.23
2022-12-23T00:11:30.639Z,14.22
2022-12-23T00:14:20.955Z,14.21
2022-12-23T00:16:51.546Z,14.18
2022-12-23T00:19:20.233Z,14.15
2022-12-23T00:21:49.147Z,14.13
2022-12-23T00:24:17.298Z,14.11
2022-12-23T00:26:45.370Z,14.10
2022-12-23T00:29:13.457Z,14.07
2022-12-23T00:31:41.716Z,14.06
2022-12-23T00:34:12.999Z,14.03
2022-12-23T00:36:41.271Z,14.00
2022-12-23T00:39:30.399Z,13.99
2022-12-23T00:42:15.996Z,13.96
2022-12-23T00:44:44.239Z,13.94
2022-12-23T00:47:32.363Z,13.93
2022-12-23T00:50:07.991Z,13.91
2022-12-23T00:52:36.123Z,13.88
2022-12-23T00:55:04.271Z,13.86
2022-12-23T00:57:32.460Z,13.85
2022-12-23T01:00:03.634Z,13.84
2022-12-23T01:02:49.880Z,13.81
2022-12-23T01:05:37.711Z,13.79
2022-12-23T01:08:07.166Z,13.80
2022-12-23T01:10:35.837Z,13.77
2022-12-23T01:13:04.140Z,13.74
2022-12-23T01:15:32.667Z,13.74
2022-12-23T01:18:00.824Z,13.70
2022-12-23T01:20:30.419Z,13.69
2022-12-23T01:22:58.517Z,13.67
2022-12-23T01:25:26.787Z,13.65
2022-12-23T01:27:54.853Z,13.63
2022-12-23T01:30:25.790Z,13.60
2022-12-23T01:32:53.823Z,13.59
2022-12-23T01:35:21.964Z,13.57
2022-12-23T01:37:51.584Z,13.59
2022-12-23T01:40:19.807Z,13.57
2022-12-23T01:42:47.487Z,13.56
2022-12-23T01:45:18.828Z,13.52
2022-12-23T01:47:51.383Z,13.53
2022-12-23T01:50:25.215Z,13.50
2022-12-23T01:53:06.953Z,13.46
2022-12-23T01:55:46.232Z,13.45
2022-12-23T01:58:18.420Z,13.45
2022-12-23T02:01:03.963Z,13.45
2022-12-23T02:03:44.626Z,13.43
2022-12-23T02:06:37.012Z,13.40
2022-12-23T02:09:19.230Z,13.38
2022-12-23T02:12:22.456Z,13.37
2022-12-23T02:15:23.696Z,13.35
2022-12-23T02:18:01.759Z,13.36
2022-12-23T02:20:58.470Z,13.33
2022-12-23T02:24:14.783Z,13.32
2022-12-23T02:27:06.320Z,13.29
2022-12-23T02:30:07.007Z,13.28
2022-12-23T02:32:51.374Z,13.25
2022-12-23T02:35:27.419Z,13.25
2022-12-23T02:38:03.081Z,13.23
2022-12-23T02:40:40.477Z,13.22
2022-12-23T02:43:18.476Z,13.18
2022-12-23T02:45:52.231Z,13.20
2022-12-23T02:48:28.683Z,13.18
2022-12-23T02:50:58.946Z,13.17
2022-12-23T02:53:31.945Z,13.16
2022-12-23T02:56:02.117Z,13.15
2022-12-23T02:58:35.013Z,13.15
2022-12-23T03:01:04.970Z,13.11
2022-12-23T03:03:36.683Z,13.07
2022-12-23T03:06:15.106Z,13.08
2022-12-23T03:08:45.582Z,13.05
2022-12-23T03:11:15.878Z,13.05
2022-12-23T03:14:00.826Z,13.04
2022-12-23T03:16:36.614Z,13.00
2022-12-23T03:19:15.598Z,13.00
2022-12-23T03:21:47.048Z,12.99
2022-12-23T03:24:23.354Z,12.96
2022-12-23T03:26:58.768Z,12.97
2022-12-23T03:29:33.552Z,12.93
2022-12-23T03:32:04.734Z,12.92
2022-12-23T03:34:40.207Z,12.89
2022-12-23T03:37:11.894Z,12.89
2022-12-23T03:39:44.497Z,12.88
2022-12-23T03:42:19.627Z,12.87
2022-12-23T03:45:28.045Z,12.85
2022-12-23T03:47:47.893Z,12.85
2022-12-23T03:50:20.579Z,12.82
2022-12-23T03:52:53.962Z,12.81
2022-12-23T03:55:26.779Z,12.80
2022-12-23T03:58:10.635Z,12.78
2022-12-23T04:00:49.389Z,12.75
2022-12-23T04:03:26.974Z,12.73
2022-12-23T04:06:00.933Z,12.73
2022-12-23T04:08:33.872Z,12.71
2022-12-23T04:11:03.000Z,12.70
2022-12-23T04:13:32.113Z,12.71
2022-12-23T04:16:00.982Z,12.70
2022-12-23T04:18:29.850Z,12.68
2022-12-23T04:20:59.627Z,12.65
2022-12-23T04:23:27.757Z,12.65
2022-12-23T04:25:55.916Z,12.64
2022-12-23T04:28:23.987Z,12.61
2022-12-23T04:30:52.133Z,12.59
2022-12-23T04:33:20.269Z,12.58
2022-12-23T04:35:48.382Z,12.57
2022-12-23T04:38:17.878Z,12.59
2022-12-23T04:40:46.983Z,12.59
2022-12-23T04:43:15.975Z,12.68
2022-12-23T04:45:44.004Z,12.78
2022-12-23T04:48:12.012Z,12.85
2022-12-23T04:50:40.598Z,12.97
2022-12-23T04:53:08.787Z,13.08
2022-12-23T04:55:38.278Z,13.18
2022-12-23T04:58:06.922Z,13.29
2022-12-23T05:00:39.577Z,13.40
2022-12-23T05:03:08.298Z,13.51
2022-12-23T05:05:36.527Z,13.63
2022-12-23T05:08:06.072Z,13.72
2022-12-23T05:10:34.191Z,13.84
2022-12-23T05:13:03.724Z,13.92
2022-12-23T05:15:33.122Z,14.04
2022-12-23T05:18:01.555Z,14.11
2022-12-23T05:20:31.404Z,14.20
2022-12-23T05:22:59.594Z,14.30
2022-12-23T05:25:27.703Z,14.41
2022-12-23T05:27:55.910Z,14.50
2022-12-23T05:30:29.418Z,14.60
2022-12-23T05:32:58.399Z,14.71
2022-12-23T05:35:27.722Z,14.81
2022-12-23T05:37:57.777Z,14.89
2022-12-23T05:40:30.159Z,14.96
2022-12-23T05:43:00.561Z,14.99
2022-12-23T05:45:30.095Z,15.02
2022-12-23T05:47:58.199Z,15.04
2022-12-23T05:50:26.521Z,15.05
2022-12-23T05:52:55.909Z,15.09
2022-12-23T05:55:24.304Z,15.11
2022-12-23T05:57:52.746Z,15.12
2022-12-23T06:00:21.757Z,15.14
2022-12-23T06:02:53.945Z,15.16
2022-12-23T06:05:22.944Z,15.24
2022-12-23T06:07:51.042Z,15.31
2022-12-23T06:10:20.343Z,15.35
2022-12-23T06:12:48.467Z,15.37
2022-12-23T06:15:16.688Z,15.38
2022-12-23T06:17:44.863Z,15.38
2022-12-23T06:20:20.390Z,15.38
2022-12-23T06:22:49.275Z,15.38
2022-12-23T06:25:17.609Z,15.33
2022-12-23T06:27:45.723Z,15.31
2022-12-23T06:30:16.297Z,15.26
2022-12-23T06:32:44.657Z,15.20
2022-12-23T06:35:13.436Z,15.18
2022-12-23T06:37:42.876Z,15.13
2022-12-23T06:40:14.664Z,15.10
2022-12-23T06:42:42.795Z,15.05
2022-12-23T06:45:11.973Z,15.00
2022-12-23T06:47:40.092Z,14.95
2022-12-23T06:50:10.062Z,14.89
2022-12-23T06:52:38.599Z,14.85
2022-12-23T06:55:08.983Z,14.78
2022-12-23T06:57:37.657Z,14.74
2022-12-23T07:00:08.747Z,14.70
2022-12-23T07:02:37.512Z,14.65
2022-12-23T07:05:06.238Z,14.61
2022-12-23T07:07:34.607Z,14.57
2022-12-23T07:10:04.938Z,14.51
2022-12-23T07:12:35.097Z,14.45
2022-12-23T07:15:03.378Z,14.42
2022-12-23T07:17:31.626Z,14.37
2022-12-23T07:19:59.849Z,14.32
2022-12-23T07:22:28.313Z,14.28
2022-12-23T07:24:56.460Z,14.22
2022-12-23T07:27:24.599Z,14.17
2022-12-23T07:29:54.170Z,14.12
2022-12-23T07:32:22.409Z,14.10
2022-12-23T07:34:50.855Z,14.04
2022-12-23T07:37:19.119Z,14.00
2022-12-23T07:39:48.960Z,13.95
2022-12-23T07:42:43.366Z,13.94
2022-12-23T07:45:07.956Z,13.88
2022-12-23T07:47:36.089Z,13.84
2022-12-23T07:50:04.380Z,13.81
2022-12-23T07:52:32.453Z,13.78
2022-12-23T07:55:00.587Z,13.77
2022-12-23T07:57:29.348Z,13.74
2022-12-23T08:00:00.703Z,13.72
2022-12-23T08:02:30.271Z,13.73
2022-12-23T08:04:58.557Z,13.75
2022-12-23T08:07:26.723Z,13.79
2022-12-23T08:09:54.911Z,13.80
2022-12-23T08:12:23.051Z,13.83
2022-12-23T08:14:52.674Z,13.82
2022-12-23T08:17:22.019Z,13.82
2022-12-23T08:19:51.658Z,13.80
2022-12-23T08:22:19.800Z,13.80
2022-12-23T08:24:47.895Z,13.78
2022-12-23T08:27:16.331Z,13.78
2022-12-23T08:29:47.515Z,13.75
2022-12-23T08:32:15.614Z,13.72
2022-12-23T08:34:43.754Z,13.70
2022-12-23T08:37:13.246Z,13.68
2022-12-23T08:39:42.276Z,13.62
2022-12-23T08:42:10.360Z,13.64
2022-12-23T08:44:38.465Z,13.60
2022-12-23T08:47:06.600Z,13.58
2022-12-23T08:49:34.688Z,13.55
2022-12-23T08:52:03.660Z,13.52
2022-12-23T08:54:33.147Z,13.49
2022-12-23T08:57:01.238Z,13.45
2022-12-23T08:59:30.215Z,13.43
2022-12-23T09:01:59.783Z,13.40
2022-12-23T09:04:28.097Z,13.39
2022-12-23T09:06:56.220Z,13.40
2022-12-23T09:09:24.510Z,13.36
2022-12-23T09:11:54.156Z,13.35
2022-12-23T09:14:22.324Z,13.34
2022-12-23T09:16:52.537Z,13.29
2022-12-23T09:19:20.689Z,13.30
2022-12-23T09:21:49.164Z,13.28
2022-12-23T09:24:20.351Z,13.26
2022-12-23T09:26:48.467Z,13.24
2022-12-23T09:29:18.001Z,13.21
2022-12-23T09:31:46.113Z,13.18
2022-12-23T09:34:14.401Z,13.17
2022-12-23T09:36:42.470Z,13.15
2022-12-23T09:39:11.417Z,13.13
2022-12-23T09:42:01.404Z,13.11
2022-12-23T09:44:50.652Z,13.07
2022-12-23T09:47:23.069Z,13.06
2022-12-23T09:49:59.015Z,13.05
2022-12-23T09:52:37.524Z,13.03
2022-12-23T09:55:10.394Z,13.01
2022-12-23T09:57:46.169Z,13.00
2022-12-23T10:00:18.414Z,12.97
2022-12-23T10:03:00.941Z,13.08
2022-12-23T10:05:40.817Z,13.10
2022-12-23T10:08:13.689Z,13.09
2022-12-23T10:10:46.415Z,13.10
2022-12-23T10:13:25.608Z,13.08
2022-12-23T10:15:57.970Z,13.08
2022-12-23T10:18:34.537Z,13.07
2022-12-23T10:21:07.287Z,13.05
2022-12-23T10:23:39.237Z,13.00
2022-12-23T10:26:16.069Z,12.99
2022-12-23T10:28:44.176Z,12.97
2022-12-23T10:34:18.156Z,12.91
2022-12-23T10:36:54.152Z,12.90
2022-12-23T10:39:32.481Z,12.89
2022-12-23T10:42:13.541Z,12.85
2022-12-23T10:45:11.518Z,12.80
2022-12-23T10:47:51.545Z,12.86
2022-12-23T10:50:36.247Z,13.02
2022-12-23T10:53:11.295Z,13.05
2022-12-23T10:55:40.218Z,13.04
2022-12-23T10:58:15.539Z,13.02
2022-12-23T11:00:47.820Z,12.98
2022-12-23T11:03:23.373Z,12.94
2022-12-23T11:05:53.759Z,12.91
2022-12-23T11:08:23.830Z,12.85
2022-12-23T11:10:52.044Z,12.85
2022-12-23T11:13:35.635Z,12.82
2022-12-23T11:16:19.552Z,12.80
2022-12-23T11:19:01.121Z,12.78
2022-12-23T11:21:30.940Z,12.77
2022-12-23T11:24:09.877Z,12.75
2022-12-23T11:26:38.124Z,12.73
2022-12-23T11:29:11.354Z,12.70
2022-12-23T11:31:40.112Z,12.70
2022-12-23T11:34:17.632Z,12.69
2022-12-23T11:36:55.106Z,12.65
2022-12-23T11:39:27.744Z,12.65
2022-12-23T11:42:03.789Z,12.63
2022-12-23T11:44:36.060Z,12.63
2022-12-23T11:47:25.018Z,12.58
2022-12-23T11:49:57.347Z,12.58
2022-12-23T11:52:26.921Z,12.57
2022-12-23T11:54:57.030Z,12.55
2022-12-23T11:57:33.436Z,12.54
2022-12-23T12:00:05.792Z,12.51
2022-12-23T12:02:39.609Z,12.51
2022-12-23T12:05:22.604Z,12.48
2022-12-23T12:07:52.832Z,12.48
2022-12-23T12:10:26.616Z,12.45
2022-12-23T12:12:58.750Z,12.46
2022-12-23T12:15:37.717Z,12.45
2022-12-23T12:18:09.211Z,12.44
2022-12-23T12:20:42.229Z,12.44
2022-12-23T12:23:15.795Z,12.41
2022-12-23T12:25:48.674Z,12.41
2022-12-23T12:28:21.932Z,12.39
2022-12-23T12:30:53.523Z,12.38
2022-12-23T12:33:27.813Z,12.39
2022-12-23T12:36:09.062Z,12.38
2022-12-23T12:38:39.534Z,12.36
2022-12-23T12:41:17.259Z,12.34
2022-12-23T12:43:52.106Z,12.32
2022-12-23T12:46:28.364Z,12.31
2022-12-23T12:49:03.143Z,12.32
2022-12-23T12:51:39.148Z,12.29
2022-12-23T12:54:16.855Z,12.29
2022-12-23T12:56:49.750Z,12.29
2022-12-23T12:59:20.822Z,12.33
2022-12-23T13:01:58.923Z,12.37
2022-12-23T13:04:57.277Z,12.48
2022-12-23T13:07:39.211Z,12.61
2022-12-23T13:10:18.798Z,12.75
2022-12-23T13:12:57.460Z,12.88
2022-12-23T13:15:34.199Z,13.00
2022-12-23T13:18:16.813Z,13.13
2022-12-23T13:20:53.399Z,13.27
2022-12-23T13:23:45.850Z,13.40
2022-12-23T13:26:27.884Z,13.50
2022-12-23T13:29:11.062Z,13.61
2022-12-23T13:31:50.300Z,13.68
2022-12-23T13:34:32.889Z,13.73
2022-12-23T13:37:14.465Z,13.77
2022-12-23T13:39:57.043Z,13.78
2022-12-23T13:42:32.301Z,13.79
2022-12-23T13:45:02.694Z,13.79
2022-12-23T13:47:45.651Z,13.78
2022-12-23T13:50:25.017Z,13.76
2022-12-23T13:53:11.038Z,13.74
2022-12-23T13:55:56.268Z,13.71
2022-12-23T13:58:27.034Z,13.69
2022-12-23T14:01:00.257Z,13.68
2022-12-23T14:03:35.571Z,13.65
2022-12-23T14:06:41.743Z,13.63
2022-12-23T14:09:15.559Z,13.60
2022-12-23T14:11:45.941Z,13.56
2022-12-23T14:14:22.596Z,13.56
2022-12-23T14:17:02.733Z,13.53
2022-12-23T14:19:47.396Z,13.49
2022-12-23T14:22:32.834Z,13.46
2022-12-23T14:25:44.532Z,13.43
2022-12-23T14:28:29.680Z,13.41
2022-12-23T14:30:57.944Z,13.38
2022-12-23T14:33:28.641Z,13.36
2022-12-23T14:35:59.060Z,13.35
2022-12-23T14:38:29.721Z,13.32
2022-12-23T14:41:24.758Z,13.28
2022-12-23T14:43:57.459Z,13.28
2022-12-23T14:46:56.328Z,13.24
2022-12-23T14:49:44.297Z,13.22
2022-12-23T14:52:44.302Z,13.21
2022-12-23T14:55:52.526Z,13.17
2022-12-23T14:58:49.382Z,13.13
2022-12-23T15:01:20.716Z,13.11
2022-12-23T15:03:57.603Z,13.09
2022-12-23T15:06:34.707Z,13.09
2022-12-23T15:09:03.994Z,13.06
2022-12-23T15:11:35.576Z,13.06
2022-12-23T15:14:08.921Z,13.04
2022-12-23T15:16:40.363Z,13.03
2022-12-23T15:19:19.196Z,13.01
2022-12-23T15:21:55.672Z,13.00
2022-12-23T15:24:28.951Z,12.98
2022-12-23T15:27:25.513Z,12.95
2022-12-23T15:29:49.437Z,12.93
2022-12-23T15:32:22.292Z,12.94
2022-12-23T15:34:52.174Z,12.92
2022-12-23T15:37:27.677Z,12.94
2022-12-23T15:40:11.509Z,12.93
2022-12-23T15:42:47.311Z,12.97
2022-12-23T15:45:33.210Z,12.99
2022-12-23T15:48:03.610Z,13.04
2022-12-23T15:50:40.325Z,13.16
2022-12-23T15:53:11.690Z,13.26
2022-12-23T15:55:42.139Z,13.28
2022-12-23T15:58:19.090Z,13.25
2022-12-23T16:00:53.646Z,13.26
2022-12-23T16:03:31.479Z,13.22
2022-12-23T16:06:20.668Z,13.25
2022-12-23T16:08:58.762Z,13.32
2022-12-23T16:11:42.921Z,13.36
2022-12-23T16:14:33.557Z,13.39
2022-12-23T16:17:02.801Z,13.45
2022-12-23T16:19:40.571Z,13.49
2022-12-23T16:22:18.970Z,13.45
2022-12-23T16:24:49.298Z,13.48
2022-12-23T16:27:19.740Z,13.47
2022-12-23T16:29:52.235Z,13.44
2022-12-23T16:32:21.506Z,13.45
2022-12-23T16:34:52.393Z,13.44
2022-12-23T16:37:20.657Z,13.42
2022-12-23T16:39:51.063Z,13.41
2022-12-23T16:42:20.285Z,13.41
2022-12-23T16:44:48.429Z,13.41
2022-12-23T16:47:18.595Z,13.42
2022-12-23T16:49:56.902Z,13.44
2022-12-23T16:52:25.422Z,13.47
2022-12-23T16:54:53.564Z,13.58
2022-12-23T16:57:21.658Z,13.66
2022-12-23T16:59:52.120Z,13.65
2022-12-23T17:02:25.562Z,13.62
2022-12-23T17:04:53.740Z,13.64
2022-12-23T17:07:24.286Z,13.78
2022-12-23T17:09:54.771Z,13.87
2022-12-23T17:12:23.390Z,13.93
2022-12-23T17:14:51.556Z,14.06
2022-12-23T17:17:21.493Z,14.20
2022-12-23T17:19:50.118Z,14.44
2022-12-23T17:22:18.474Z,14.71
2022-12-23T17:24:47.950Z,14.95
2022-12-23T17:27:20.636Z,15.09
2022-12-23T17:29:51.063Z,15.15
2022-12-23T17:32:20.284Z,15.23
2022-12-23T17:34:48.497Z,15.25
2022-12-23T17:37:19.033Z,15.31
2022-12-23T17:39:49.049Z,15.31
2022-12-23T17:42:25.238Z,15.38
2022-12-23T17:44:53.992Z,15.45
2022-12-23T17:47:23.872Z,15.57
2022-12-23T17:49:52.924Z,15.79
2022-12-23T17:52:22.889Z,15.89
2022-12-23T17:54:52.761Z,15.94
2022-12-23T17:57:22.714Z,16.00
2022-12-23T17:59:52.555Z,16.05
2022-12-23T18:02:25.779Z,16.09
2022-12-23T18:04:54.948Z,16.16
2022-12-23T18:07:23.495Z,16.23
2022-12-23T18:09:56.365Z,16.39
2022-12-23T18:12:36.684Z,16.55
2022-12-23T18:15:07.198Z,16.65
2022-12-23T18:17:35.317Z,16.77
2022-12-23T18:20:07.962Z,16.83
2022-12-23T18:22:36.266Z,16.88
2022-12-23T18:25:06.419Z,16.90
2022-12-23T18:27:34.775Z,16.85
2022-12-23T18:30:08.540Z,16.82
2022-12-23T18:32:36.850Z,16.83
2022-12-23T18:35:17.999Z,16.82
2022-12-23T18:37:46.269Z,16.85
2022-12-23T18:40:16.145Z,16.84
2022-12-23T18:42:44.449Z,16.87
2022-12-23T18:45:24.750Z,16.87
2022-12-23T18:47:53.065Z,16.90
2022-12-23T18:50:21.873Z,16.92
2022-12-23T18:52:50.395Z,16.95
2022-12-23T18:55:20.180Z,17.00
2022-12-23T18:57:48.887Z,17.07
2022-12-23T19:00:19.339Z,17.09
2022-12-23T19:02:48.064Z,17.12
2022-12-23T19:05:19.413Z,17.21
2022-12-23T19:07:49.471Z,17.24
2022-12-23T19:10:22.589Z,17.25
2022-12-23T19:12:51.102Z,17.25
2022-12-23T19:15:19.437Z,17.25
2022-12-23T19:17:47.714Z,17.25
2022-12-23T19:20:18.153Z,17.23
2022-12-23T19:22:48.993Z,17.21
2022-12-23T19:25:19.844Z,17.20
2022-12-23T19:27:48.050Z,17.17
2022-12-23T19:30:19.418Z,17.21
2022-12-23T19:32:50.010Z,17.23
2022-12-23T19:35:18.467Z,17.26
2022-12-23T19:37:46.673Z,17.28
2022-12-23T19:40:16.849Z,17.32
2022-12-23T19:42:46.399Z,17.34
2022-12-23T19:45:14.696Z,17.37
2022-12-23T19:47:42.864Z,17.41
2022-12-23T19:50:15.060Z,17.45
2022-12-23T19:52:43.219Z,17.49
2022-12-23T19:55:12.859Z,17.55
2022-12-23T19:57:41.071Z,17.60
2022-12-23T20:00:12.435Z,17.64
2022-12-23T20:02:40.737Z,17.67
2022-12-23T20:05:10.543Z,17.69
2022-12-23T20:07:39.003Z,17.68
2022-12-23T20:10:08.823Z,17.67
2022-12-23T20:12:37.323Z,17.66
2022-12-23T20:15:05.969Z,17.63
2022-12-23T20:17:35.492Z,17.64
2022-12-23T20:20:03.646Z,17.63
2022-12-23T20:22:31.842Z,17.61
2022-12-23T20:25:00.164Z,17.59
2022-12-23T20:27:28.524Z,17.57
2022-12-23T20:29:57.054Z,17.54
2022-12-23T20:32:25.253Z,17.49
2022-12-23T20:34:54.886Z,17.48
2022-12-23T20:37:23.007Z,17.46
2022-12-23T20:39:53.779Z,17.48
2022-12-23T20:42:22.091Z,17.53
2022-12-23T20:44:50.838Z,17.56
2022-12-23T20:47:19.034Z,17.58
2022-12-23T20:49:47.321Z,17.63
2022-12-23T20:52:16.735Z,17.68
2022-12-23T20:54:44.789Z,17.71
2022-12-23T20:57:12.909Z,17.78
2022-12-23T20:59:42.489Z,17.83
2022-12-23T21:02:13.216Z,17.90
2022-12-23T21:04:41.731Z,17.94
2022-12-23T21:07:10.360Z,17.97
2022-12-23T21:09:39.878Z,17.95
2022-12-23T21:12:08.264Z,17.93
2022-12-23T21:14:37.176Z,17.90
2022-12-23T21:17:05.281Z,17.86
2022-12-23T21:19:34.806Z,17.80
2022-12-23T21:22:03.278Z,17.76
2022-12-23T21:24:31.397Z,17.70
2022-12-23T21:27:00.860Z,17.64
2022-12-23T21:29:29.270Z,17.57
2022-12-23T21:31:57.456Z,17.51
2022-12-23T21:34:25.776Z,17.45
2022-12-23T21:36:54.054Z,17.39
2022-12-23T21:39:22.143Z,17.32
2022-12-23T21:41:51.577Z,17.27
2022-12-23T21:44:21.233Z,17.18
2022-12-23T21:46:51.053Z,17.12
2022-12-23T21:49:20.105Z,17.08
2022-12-23T21:51:48.172Z,17.02
2022-12-23T21:54:16.333Z,16.96
2022-12-23T21:56:44.537Z,16.91
2022-12-23T21:59:15.281Z,16.84
2022-12-23T22:01:45.180Z,16.79
2022-12-23T22:04:13.605Z,16.72
2022-12-23T22:06:44.628Z,16.67
2022-12-23T22:09:15.423Z,16.60
2022-12-23T22:11:43.757Z,16.53
2022-12-23T22:14:14.196Z,16.48
2022-12-23T22:16:42.453Z,16.40
2022-12-23T22:19:13.072Z,16.37
2022-12-23T22:21:42.562Z,16.30
2022-12-23T22:24:11.211Z,16.23
2022-12-23T22:26:40.667Z,16.18
2022-12-23T22:29:08.997Z,16.12
2022-12-23T22:31:40.603Z,16.09
2022-12-23T22:34:13.495Z,16.03
2022-12-23T22:36:41.766Z,15.98
2022-12-23T22:39:17.624Z,15.93
2022-12-23T22:41:49.886Z,15.87
2022-12-23T22:44:18.276Z,15.82
2022-12-23T22:46:46.648Z,15.77
2022-12-23T22:49:16.825Z,15.73
2022-12-23T22:51:45.971Z,15.67
2022-12-23T22:54:14.395Z,15.66
2022-12-23T22:56:42.610Z,15.62
2022-12-23T22:59:22.070Z,15.58
2022-12-23T23:01:51.150Z,15.53
2022-12-23T23:04:20.929Z,15.45
2022-12-23T23:06:49.206Z,15.45
2022-12-23T23:09:19.846Z,15.41
2022-12-23T23:11:48.369Z,15.36
2022-12-23T23:14:18.655Z,15.35
2022-12-23T23:16:46.877Z,15.30
2022-12-23T23:19:16.457Z,15.25
2022-12-23T23:21:45.922Z,15.23
2022-12-23T23:24:14.244Z,15.19
2022-12-23T23:26:42.348Z,15.15
2022-12-23T23:29:10.445Z,15.12
2022-12-23T23:31:43.167Z,15.08
2022-12-23T23:34:11.932Z,15.06
2022-12-23T23:36:40.488Z,15.01
2022-12-23T23:39:12.134Z,14.98
2022-12-23T23:41:40.952Z,14.95
2022-12-23T23:44:09.422Z,14.91
2022-12-23T23:46:37.582Z,14.88
2022-12-23T23:49:05.951Z,14.83
2022-12-23T23:51:34.108Z,14.81
2022-12-23T23:54:02.645Z,14.77
2022-12-23T23:56:38.596Z,14.74
2022-12-23T23:59:08.438Z,14.72
